This is the latest recevied weather packets stored in our database for station/object WJ9H. If no packets are shown the sender has not sent any weather packets the latest 1 day(s).
| Time | Temp. | Humidity | Pressure | Rain* | Wind** | Luminosity | Snow |
|---|---|---|---|---|---|---|---|
| 1778028889 | 9.44° C | - | 1009.9 hPa | 0 mm | 3.13 m/s, 146° | - | - |
| 1778028647 | 9.44° C | - | 1009.9 hPa | 0 mm | 4.47 m/s, 150° | - | - |
| 1778028578 | 9.44° C | - | 1009.9 hPa | 0 mm | 4.47 m/s, 150° | - | - |
| 1778028383 | 10° C | - | 1009.5 hPa | 0 mm | 4.92 m/s, 169° | - | - |
| 1778027976 | 10° C | - | 1009.5 hPa | 0 mm | 4.92 m/s, 169° | - | - |
| 1778027837 | 10° C | - | 1009.5 hPa | 0 mm | 6.26 m/s, 180° | - | - |
| 1778027688 | 10° C | - | 1009.5 hPa | 0 mm | 4.47 m/s, 183° | - | - |
| 1778027376 | 10° C | - | 1009.5 hPa | 0 mm | 6.26 m/s, 180° | - | - |
| 1778027235 | 10.56° C | - | 1009.5 hPa | 0 mm | 4.92 m/s, 53° | - | - |
| 1778026777 | 10.56° C | - | 1009.5 hPa | 0 mm | 4.92 m/s, 53° | - | - |
| 1778026686 | 10.56° C | - | 1009.5 hPa | 0 mm | 4.92 m/s, 51° | - | - |
| 1778026488 | 10.56° C | - | 1009.5 hPa | 0 mm | 4.47 m/s, 77° | - | - |
| 1778026177 | 10.56° C | - | 1009.5 hPa | 0 mm | 4.92 m/s, 51° | - | - |
| 1778026037 | 11.11° C | - | 1009.5 hPa | 0 mm | 7.6 m/s, 170° | - | - |
| 1778025577 | 11.11° C | - | 1009.5 hPa | 0 mm | 7.6 m/s, 170° | - | - |
| 1778025288 | 11.11° C | - | 1009.5 hPa | 0 mm | 2.68 m/s, 79° | - | - |
| 1778025047 | 11.11° C | - | 1009.5 hPa | 0 mm | 5.36 m/s, 83° | - | - |
| 1778024977 | 11.11° C | - | 1009.5 hPa | 0 mm | 5.36 m/s, 83° | - | - |
| 1778024782 | 11.67° C | - | 1009.5 hPa | 0 mm | 2.68 m/s, 84° | - | - |
| 1778024376 | 11.67° C | - | 1009.5 hPa | 0 mm | 2.68 m/s, 84° | - | - |
| 1778024198 | 11.11° C | - | 1009.5 hPa | 0 mm | 5.81 m/s, 84° | - | - |
| 1778024088 | 11.11° C | - | 1009.5 hPa | 0 mm | 4.92 m/s, 82° | - | - |
| 1778023781 | 11.11° C | - | 1009.5 hPa | 0 mm | 5.81 m/s, 84° | - | - |
| 1778023449 | 11.67° C | - | 1009.5 hPa | 0 mm | 4.02 m/s, 60° | - | - |
| 1778023180 | 11.67° C | - | 1009.5 hPa | 0 mm | 4.02 m/s, 60° | - | - |
* Rain latest hour (hover to see other rain measurements)
** Current wind speed in m/s (hover to see current wind gust speed)